Celebrity Equinox — 9HXD9 — position and weather

sailwx.info

Track history (hours):
 
Tides and Currents Weather Stations Pressure Air Temp Water Temp Dewpoint Dewpoint Depression Visibility Wind Speed Wind Dir Waves Ship Positions

Celebrity Equinox

Last reported at 2016-Jul-23 17:00 UTC. Time now 2016-Jul-23 19:12 UTC.
Position N 42°06' E 011°18'.

Length 316 m; draft 8.8 m.

Type: Passenger vessel. MMSI: 249667000.

Wind from 100 at 13 knots

Waves 1.0 meters (3 feet), 3 second period

Barometer 1010.0 mb
Air temperature 27.0 ° C
Water temperature 29.0 ° C

Date/timePositionNaut miles runAvg speedWind from/ knotsBaromVisibWave heightAir tempDewpointWater temp
2016-Jul-23 17:00N 42°06' E 011°18'1912.0 100 / 131010.0 1.027.0 29.0
2016-Jul-23 15:27N 42°06' E 011°43'1 0.2
2016-Jul-23 12:00N 42°06' E 011°42'0 0.0 160 / 81011.0 5.4 0.530.0 23.6
2016-Jul-23 09:00N 42°06' E 011°42'17 2.1 160 / 91013.0 2.2 1.029.2 23.3
2016-Jul-23 01:12N 41°49' E 011°43'1421.1
2016-Jul-23 00:33N 41°39' E 011°54'2121.4
2016-Jul-22 23:34N 41°23' E 012°13'2121.3
2016-Jul-22 22:34N 41°06' E 012°31'2120.9
2016-Jul-22 21:33N 40°51' E 012°50'2120.8
2016-Jul-22 20:33N 40°44' E 013°16'2120.7
2016-Jul-22 19:33N 40°38' E 013°42'2020.2
2016-Jul-22 18:34N 40°32' E 014°07'2120.4
2016-Jul-22 17:33N 40°35' E 014°34'6 0.7
2016-Jul-22 09:00N 40°36' E 014°42'22 3.3 110 / 71014.0 2.2 26.6 25.1
2016-Jul-22 02:27N 40°14' E 014°45'4618.7
2016-Jul-22 00:00N 39°30' E 015°00'612.8 320 / 51014.0 5.4 1.024.0 28.0
2016-Jul-21 23:33N 39°27' E 015°06'4217.4
2016-Jul-21 21:09N 38°48' E 015°27'1017.2
2016-Jul-21 20:33N 38°39' E 015°32'1716.9
2016-Jul-21 19:34N 38°23' E 015°40'1414.4
2016-Jul-21 18:33N 38°09' E 015°36'1919.4
2016-Jul-21 17:33N 37°52' E 015°26'2019.6
2016-Jul-21 16:31N 37°34' E 015°14'15 9.6
2016-Jul-21 15:00N 37°24' E 015°00'8 2.6 050 / 101013.010.8 29.0 26.0
2016-Jul-21 12:00N 37°30' E 015°06'8 2.6 110 / 41014.0 5.4 1.029.0 26.6
2016-Jul-21 09:00N 37°24' E 015°00'7 2.1 070 / 41015.0 5.4 26.3 26.8
2016-Jul-21 05:29N 37°30' E 015°06'4312.2
2016-Jul-21 02:00N 36°48' E 015°18'1721.8 330 / 101012.010.8 1.0 24.0
2016-Jul-21 01:13N 36°32' E 015°11'1316.2
2016-Jul-21 00:25N 36°22' E 015°01'716.3
2016-Jul-21 00:00N 36°18' E 014°54'817.4 080 / 61013.0 5.4 0.524.0 26.3
2016-Jul-20 23:34N 36°11' E 014°50'1716.8
2016-Jul-20 22:34N 35°58' E 014°37'7 6.7
2016-Jul-20 21:32N 35°53' E 014°31'0 0.0
2016-Jul-20 20:31N 35°53' E 014°31'0 0.0
2016-Jul-20 19:31N 35°53' E 014°31'0 0.0
2016-Jul-20 18:33N 35°53' E 014°31'0 0.0
2016-Jul-20 17:33N 35°53' E 014°31'0 0.0
2016-Jul-20 14:28N 35°53' E 014°31'5 3.7
2016-Jul-20 13:00N 35°48' E 014°30'55 5.0 040 / 61012.0 5.4 0.529.0 26.1
2016-Jul-20 02:00N 36°00' E 015°36'4924.3 330 / 101011.010.8 1.025.0 26.0
2016-Jul-20 00:00N 36°00' E 016°36'4414.7 350 / 221010.010.8 1.525.0 27.5
2016-Jul-19 21:00N 36°06' E 017°30'18420.5 350 / 221010.0 5.4 2.024.4 27.3
2016-Jul-19 12:00N 36°12' E 021°18'8817.6 270 / 121008.0 5.4 1.525.0 28.1
2016-Jul-19 07:00N 36°24' E 023°06'6521.7 020 / 281007.0 1.025.6 27.7
2016-Jul-19 04:00N 36°54' E 024°18'3117.0 360 / 251006.010.8 1.025.0 26.0
2016-Jul-19 02:09N 37°14' E 024°48'1117.6
2016-Jul-19 01:33N 37°21' E 024°58'1716.9
2016-Jul-19 00:34N 37°28' E 025°18'1 1.1
2016-Jul-18 23:32N 37°28' E 025°19'0 0.0
2016-Jul-18 22:32N 37°28' E 025°19'0 0.0
2016-Jul-18 21:32N 37°28' E 025°19'4 7.6
2016-Jul-18 21:00N 37°24' E 025°18'4 7.1 340 / 231006.0 5.4 1.524.5 26.1
2016-Jul-18 20:25N 37°28' E 025°19'0 0.0
2016-Jul-18 19:31N 37°28' E 025°19'0 0.0
2016-Jul-18 18:33N 37°28' E 025°19'0 0.0
2016-Jul-18 17:33N 37°28' E 025°19'0 0.0
2016-Jul-18 16:32N 37°28' E 025°19'0 0.0
2016-Jul-18 15:32N 37°28' E 025°19'0 0.0
2016-Jul-18 14:32N 37°28' E 025°19'0 0.0
2016-Jul-18 13:31N 37°28' E 025°19'0 0.0
2016-Jul-18 12:31N 37°28' E 025°19'0 0.0
2016-Jul-18 11:33N 37°28' E 025°19'0 0.0
2016-Jul-18 10:33N 37°28' E 025°19'0 0.0
2016-Jul-18 09:32N 37°28' E 025°19'4 7.4
2016-Jul-18 09:00N 37°24' E 025°18'4 8.0 360 / 381005.0 2.2 1.024.3 26.6
2016-Jul-18 08:29N 37°28' E 025°19'0 0.0
2016-Jul-18 07:34N 37°28' E 025°19'0 0.0
2016-Jul-18 06:31N 37°28' E 025°19'4 7.7
2016-Jul-18 06:00N 37°24' E 025°18'4 8.4 340 / 301005.0 2.2 1.024.7 26.7
2016-Jul-18 05:31N 37°28' E 025°19'0 0.0
2016-Jul-18 04:33N 37°28' E 025°19'0 0.0
2016-Jul-18 03:33N 37°28' E 025°19'712.5
2016-Jul-18 03:00N 37°24' E 025°12'4 9.9 350 / 101005.010.8 1.027.0 26.0
2016-Jul-18 02:34N 37°27' E 025°15'7 6.6
2016-Jul-18 01:29N 37°23' E 025°08'7 7.1
2016-Jul-18 00:34N 37°18' E 025°03'916.4
2016-Jul-18 00:00N 37°12' E 024°54'3 6.7 350 / 101006.0 5.4 1.026.0 27.7
2016-Jul-17 23:34N 37°15' E 024°55'25 9.7
2016-Jul-17 21:00N 37°00' E 024°30'6 3.4 1007.0 2.2 27.1
2016-Jul-17 19:09N 37°03' E 024°23'4 6.4
2016-Jul-17 18:32N 37°03' E 024°19'6 6.5
2016-Jul-17 17:33N 37°04' E 024°11'7 6.6
2016-Jul-17 16:33N 37°05' E 024°02'7 6.6
2016-Jul-17 15:33N 37°05' E 023°54'712.5
2016-Jul-17 15:00N 37°00' E 023°48'4 9.5 220 / 111006.0 1.028.0 29.0
2016-Jul-17 14:33N 37°04' E 023°47'6 5.6
2016-Jul-17 13:33N 37°06' E 023°40'6 5.7
2016-Jul-17 12:29N 37°12' E 023°42'0 0.5
2016-Jul-17 12:00N 37°12' E 023°42'612.2 230 / 91008.010.8 1.026.0 27.5
2016-Jul-17 11:32N 37°17' E 023°43'6 6.3
2016-Jul-17 10:33N 37°24' E 023°44'6 6.1
2016-Jul-17 09:33N 37°30' E 023°43'1 2.1
2016-Jul-17 09:00N 37°30' E 023°42'612.9 260 / 141008.0 0.528.7 27.9
2016-Jul-17 08:34N 37°36' E 023°43'6 6.3
2016-Jul-17 07:34N 37°42' E 023°41'6 6.4
2016-Jul-17 06:34N 37°48' E 023°38'9 4.3
2016-Jul-17 04:31N 37°56' E 023°37'0 0.0
2016-Jul-17 03:33N 37°56' E 023°37'0 0.0
2016-Jul-17 02:33N 37°56' E 023°37'0 0.0
2016-Jul-17 01:33N 37°56' E 023°37'0 0.0
2016-Jul-17 00:32N 37°56' E 023°37'3 4.6
2016-Jul-17 00:00N 37°54' E 023°36'3 5.4 290 / 201007.0 5.4 0.524.0 28.4
2016-Jul-16 23:32N 37°56' E 023°37'0 0.0
2016-Jul-16 22:31N 37°56' E 023°37'0 0.0
2016-Jul-16 21:31N 37°56' E 023°37'0 0.0
2016-Jul-16 20:34N 37°56' E 023°37'0 0.0
2016-Jul-16 19:33N 37°56' E 023°37'0 0.0
2016-Jul-16 18:33N 37°56' E 023°37'0 0.0
2016-Jul-16 17:32N 37°56' E 023°37'0 0.0
2016-Jul-16 16:32N 37°56' E 023°37'0 0.0
2016-Jul-16 15:31N 37°56' E 023°37'0 0.0
2016-Jul-16 14:31N 37°56' E 023°37'0 0.0
2016-Jul-16 13:33N 37°56' E 023°37'0 0.0
2016-Jul-16 12:33N 37°56' E 023°37'3 4.5
2016-Jul-16 12:00N 37°54' E 023°36'3 5.6 280 / 131005.0 5.4 0.530.0 28.6
2016-Jul-16 11:33N 37°56' E 023°37'0 0.0
2016-Jul-16 10:32N 37°56' E 023°37'0 0.0
2016-Jul-16 09:32N 37°56' E 023°37'3 4.7
2016-Jul-16 09:00N 37°54' E 023°36'3 5.3 290 / 171006.0 5.4 27.3 28.5
2016-Jul-16 08:31N 37°56' E 023°37'0 0.0
2016-Jul-16 07:31N 37°56' E 023°37'0 0.0
2016-Jul-16 06:33N 37°56' E 023°37'3 1.6
2016-Jul-16 05:00N 37°54' E 023°36'3 5.6 290 / 271004.0 26.0 28.0
2016-Jul-16 04:33N 37°56' E 023°37'0 0.0
2016-Jul-16 03:32N 37°56' E 023°37'0 0.0
2016-Jul-16 02:32N 37°56' E 023°37'0 0.0
2016-Jul-16 01:31N 37°56' E 023°37'1 1.0
2016-Jul-16 00:33N 37°55' E 023°37'7 7.1
2016-Jul-15 23:33N 37°49' E 023°40'7 7.0
2016-Jul-15 22:34N 37°43' E 023°44'7 6.7
2016-Jul-15 21:33N 37°38' E 023°51'3 5.5
2016-Jul-15 21:00N 37°36' E 023°48'817.4 140 / 121003.0 26.3 28.7
2016-Jul-15 20:33N 37°35' E 023°58'6 5.9
2016-Jul-15 19:34N 37°32' E 024°04'6 5.9
2016-Jul-15 18:33N 37°31' E 024°11'6 6.2
2016-Jul-15 17:33N 37°30' E 024°19'15 7.0
2016-Jul-15 15:29N 37°32' E 024°37'6 6.6
2016-Jul-15 14:33N 37°33' E 024°44'8 6.2
2016-Jul-15 13:17N 37°34' E 024°54'4 5.9
2016-Jul-15 12:33N 37°32' E 024°59'2 3.3
2016-Jul-15 12:00N 37°30' E 025°00'512.1 310 / 41005.0 5.4 0.529.0 27.5
2016-Jul-15 11:34N 37°30' E 025°07'6 5.9
2016-Jul-15 10:33N 37°31' E 025°14'7 6.2
2016-Jul-15 09:28N 37°34' E 025°21'5 5.8
2016-Jul-15 08:33N 37°37' E 025°27'6 6.5
2016-Jul-15 07:34N 37°40' E 025°34'7 6.6
2016-Jul-15 06:33N 37°44' E 025°41'40 6.1
2016-Jul-15 00:00N 37°54' E 026°30'14 4.7 1004.010.8 23.0 26.1
2016-Jul-14 21:00N 37°54' E 026°48'11 3.7 240 / 171003.0 2.2 0.523.5 26.6
2016-Jul-14 18:00N 37°48' E 027°00'9 1.6 360 / 51004.0 2.2 24.7 26.4
2016-Jul-14 12:00N 37°48' E 027°12'0 0.0 280 / 51005.0 5.4 1.027.0 26.3
2016-Jul-14 09:00N 37°48' E 027°12'0 0.0 270 / 61005.0 2.2 23.2 25.9
2016-Jul-14 06:00N 37°48' E 027°12'34 5.6 280 / 31005.0 2.2 23.4 25.6
2016-Jul-14 00:00N 37°54' E 026°30'4013.3 260 / 101006.0 5.4 1.021.0 25.2
2016-Jul-13 21:00N 37°42' E 025°42'511.5 320 / 191006.0 5.4 1.023.0 25.9
2016-Jul-13 20:33N 37°40' E 025°36'1715.6
2016-Jul-13 19:28N 37°31' E 025°18'3 2.9
2016-Jul-13 18:33N 37°28' E 025°19'0 0.0
2016-Jul-13 17:33N 37°28' E 025°19'  
Track history (hours):
 
Tides and Currents Weather Stations Pressure Air Temp Water Temp Dewpoint Dewpoint Depression Visibility Wind Speed Wind Dir Waves Ship Positions

Celebrity Equinox

Last reported at 2016-Jul-23 17:00 UTC. Time now 2016-Jul-23 19:12 UTC.
Position N 42°06' E 011°18'.

Length 316 m; draft 8.8 m.

Type: Passenger vessel. MMSI: 249667000.

Wind from 100 at 13 knots

Waves 1.0 meters (3 feet), 3 second period

Barometer 1010.0 mb
Air temperature 27.0 ° C
Water temperature 29.0 ° C

Date/timePositionNaut miles runAvg speedWind from/ knotsBaromVisibWave heightAir tempDewpointWater temp
2016-Jul-23 17:00N 42°06' E 011°18'1912.0 100 / 131010.0 1.027.0 29.0
2016-Jul-23 15:27N 42°06' E 011°43'1 0.2
2016-Jul-23 12:00N 42°06' E 011°42'0 0.0 160 / 81011.0 5.4 0.530.0 23.6
2016-Jul-23 09:00N 42°06' E 011°42'17 2.1 160 / 91013.0 2.2 1.029.2 23.3
2016-Jul-23 01:12N 41°49' E 011°43'1421.1
2016-Jul-23 00:33N 41°39' E 011°54'2121.4
2016-Jul-22 23:34N 41°23' E 012°13'2121.3
2016-Jul-22 22:34N 41°06' E 012°31'2120.9
2016-Jul-22 21:33N 40°51' E 012°50'2120.8
2016-Jul-22 20:33N 40°44' E 013°16'2120.7
2016-Jul-22 19:33N 40°38' E 013°42'2020.2
2016-Jul-22 18:34N 40°32' E 014°07'2120.4
2016-Jul-22 17:33N 40°35' E 014°34'6 0.7
2016-Jul-22 09:00N 40°36' E 014°42'22 3.3 110 / 71014.0 2.2 26.6 25.1
2016-Jul-22 02:27N 40°14' E 014°45'4618.7
2016-Jul-22 00:00N 39°30' E 015°00'612.8 320 / 51014.0 5.4 1.024.0 28.0
2016-Jul-21 23:33N 39°27' E 015°06'4217.4
2016-Jul-21 21:09N 38°48' E 015°27'1017.2
2016-Jul-21 20:33N 38°39' E 015°32'1716.9
2016-Jul-21 19:34N 38°23' E 015°40'1414.4
2016-Jul-21 18:33N 38°09' E 015°36'1919.4
2016-Jul-21 17:33N 37°52' E 015°26'2019.6
2016-Jul-21 16:31N 37°34' E 015°14'15 9.6
2016-Jul-21 15:00N 37°24' E 015°00'8 2.6 050 / 101013.010.8 29.0 26.0
2016-Jul-21 12:00N 37°30' E 015°06'8 2.6 110 / 41014.0 5.4 1.029.0 26.6
2016-Jul-21 09:00N 37°24' E 015°00'7 2.1 070 / 41015.0 5.4 26.3 26.8
2016-Jul-21 05:29N 37°30' E 015°06'4312.2
2016-Jul-21 02:00N 36°48' E 015°18'1721.8 330 / 101012.010.8 1.0 24.0
2016-Jul-21 01:13N 36°32' E 015°11'1316.2
2016-Jul-21 00:25N 36°22' E 015°01'716.3
2016-Jul-21 00:00N 36°18' E 014°54'817.4 080 / 61013.0 5.4 0.524.0 26.3
2016-Jul-20 23:34N 36°11' E 014°50'1716.8
2016-Jul-20 22:34N 35°58' E 014°37'7 6.7
2016-Jul-20 21:32N 35°53' E 014°31'0 0.0
2016-Jul-20 20:31N 35°53' E 014°31'0 0.0
2016-Jul-20 19:31N 35°53' E 014°31'0 0.0
2016-Jul-20 18:33N 35°53' E 014°31'0 0.0
2016-Jul-20 17:33N 35°53' E 014°31'0 0.0
2016-Jul-20 14:28N 35°53' E 014°31'5 3.7
2016-Jul-20 13:00N 35°48' E 014°30'55 5.0 040 / 61012.0 5.4 0.529.0 26.1
2016-Jul-20 02:00N 36°00' E 015°36'4924.3 330 / 101011.010.8 1.025.0 26.0
2016-Jul-20 00:00N 36°00' E 016°36'4414.7 350 / 221010.010.8 1.525.0 27.5
2016-Jul-19 21:00N 36°06' E 017°30'18420.5 350 / 221010.0 5.4 2.024.4 27.3
2016-Jul-19 12:00N 36°12' E 021°18'8817.6 270 / 121008.0 5.4 1.525.0 28.1
2016-Jul-19 07:00N 36°24' E 023°06'6521.7 020 / 281007.0 1.025.6 27.7
2016-Jul-19 04:00N 36°54' E 024°18'3117.0 360 / 251006.010.8 1.025.0 26.0
2016-Jul-19 02:09N 37°14' E 024°48'1117.6
2016-Jul-19 01:33N 37°21' E 024°58'1716.9
2016-Jul-19 00:34N 37°28' E 025°18'1 1.1
2016-Jul-18 23:32N 37°28' E 025°19'0 0.0
2016-Jul-18 22:32N 37°28' E 025°19'0 0.0
2016-Jul-18 21:32N 37°28' E 025°19'4 7.6
2016-Jul-18 21:00N 37°24' E 025°18'4 7.1 340 / 231006.0 5.4 1.524.5 26.1
2016-Jul-18 20:25N 37°28' E 025°19'0 0.0
2016-Jul-18 19:31N 37°28' E 025°19'0 0.0
2016-Jul-18 18:33N 37°28' E 025°19'0 0.0
2016-Jul-18 17:33N 37°28' E 025°19'0 0.0
2016-Jul-18 16:32N 37°28' E 025°19'0 0.0
2016-Jul-18 15:32N 37°28' E 025°19'0 0.0
2016-Jul-18 14:32N 37°28' E 025°19'0 0.0
2016-Jul-18 13:31N 37°28' E 025°19'0 0.0
2016-Jul-18 12:31N 37°28' E 025°19'0 0.0
2016-Jul-18 11:33N 37°28' E 025°19'0 0.0
2016-Jul-18 10:33N 37°28' E 025°19'0 0.0
2016-Jul-18 09:32N 37°28' E 025°19'4 7.4
2016-Jul-18 09:00N 37°24' E 025°18'4 8.0 360 / 381005.0 2.2 1.024.3 26.6
2016-Jul-18 08:29N 37°28' E 025°19'0 0.0
2016-Jul-18 07:34N 37°28' E 025°19'0 0.0
2016-Jul-18 06:31N 37°28' E 025°19'4 7.7
2016-Jul-18 06:00N 37°24' E 025°18'4 8.4 340 / 301005.0 2.2 1.024.7 26.7
2016-Jul-18 05:31N 37°28' E 025°19'0 0.0
2016-Jul-18 04:33N 37°28' E 025°19'0 0.0
2016-Jul-18 03:33N 37°28' E 025°19'712.5
2016-Jul-18 03:00N 37°24' E 025°12'4 9.9 350 / 101005.010.8 1.027.0 26.0
2016-Jul-18 02:34N 37°27' E 025°15'7 6.6
2016-Jul-18 01:29N 37°23' E 025°08'7 7.1
2016-Jul-18 00:34N 37°18' E 025°03'916.4
2016-Jul-18 00:00N 37°12' E 024°54'3 6.7 350 / 101006.0 5.4 1.026.0 27.7
2016-Jul-17 23:34N 37°15' E 024°55'25 9.7
2016-Jul-17 21:00N 37°00' E 024°30'6 3.4 1007.0 2.2 27.1
2016-Jul-17 19:09N 37°03' E 024°23'4 6.4
2016-Jul-17 18:32N 37°03' E 024°19'6 6.5
2016-Jul-17 17:33N 37°04' E 024°11'7 6.6
2016-Jul-17 16:33N 37°05' E 024°02'7 6.6
2016-Jul-17 15:33N 37°05' E 023°54'712.5
2016-Jul-17 15:00N 37°00' E 023°48'4 9.5 220 / 111006.0 1.028.0 29.0
2016-Jul-17 14:33N 37°04' E 023°47'6 5.6
2016-Jul-17 13:33N 37°06' E 023°40'6 5.7
2016-Jul-17 12:29N 37°12' E 023°42'0 0.5
2016-Jul-17 12:00N 37°12' E 023°42'612.2 230 / 91008.010.8 1.026.0 27.5
2016-Jul-17 11:32N 37°17' E 023°43'6 6.3
2016-Jul-17 10:33N 37°24' E 023°44'6 6.1
2016-Jul-17 09:33N 37°30' E 023°43'1 2.1
2016-Jul-17 09:00N 37°30' E 023°42'612.9 260 / 141008.0 0.528.7 27.9
2016-Jul-17 08:34N 37°36' E 023°43'6 6.3
2016-Jul-17 07:34N 37°42' E 023°41'6 6.4
2016-Jul-17 06:34N 37°48' E 023°38'9 4.3
2016-Jul-17 04:31N 37°56' E 023°37'0 0.0
2016-Jul-17 03:33N 37°56' E 023°37'0 0.0
2016-Jul-17 02:33N 37°56' E 023°37'0 0.0
2016-Jul-17 01:33N 37°56' E 023°37'0 0.0
2016-Jul-17 00:32N 37°56' E 023°37'3 4.6
2016-Jul-17 00:00N 37°54' E 023°36'3 5.4 290 / 201007.0 5.4 0.524.0 28.4
2016-Jul-16 23:32N 37°56' E 023°37'0 0.0
2016-Jul-16 22:31N 37°56' E 023°37'0 0.0
2016-Jul-16 21:31N 37°56' E 023°37'0 0.0
2016-Jul-16 20:34N 37°56' E 023°37'0 0.0
2016-Jul-16 19:33N 37°56' E 023°37'0 0.0
2016-Jul-16 18:33N 37°56' E 023°37'0 0.0
2016-Jul-16 17:32N 37°56' E 023°37'0 0.0
2016-Jul-16 16:32N 37°56' E 023°37'0 0.0
2016-Jul-16 15:31N 37°56' E 023°37'0 0.0
2016-Jul-16 14:31N 37°56' E 023°37'0 0.0
2016-Jul-16 13:33N 37°56' E 023°37'0 0.0
2016-Jul-16 12:33N 37°56' E 023°37'3 4.5
2016-Jul-16 12:00N 37°54' E 023°36'3 5.6 280 / 131005.0 5.4 0.530.0 28.6
2016-Jul-16 11:33N 37°56' E 023°37'0 0.0
2016-Jul-16 10:32N 37°56' E 023°37'0 0.0
2016-Jul-16 09:32N 37°56' E 023°37'3 4.7
2016-Jul-16 09:00N 37°54' E 023°36'3 5.3 290 / 171006.0 5.4 27.3 28.5
2016-Jul-16 08:31N 37°56' E 023°37'0 0.0
2016-Jul-16 07:31N 37°56' E 023°37'0 0.0
2016-Jul-16 06:33N 37°56' E 023°37'3 1.6
2016-Jul-16 05:00N 37°54' E 023°36'3 5.6 290 / 271004.0 26.0 28.0
2016-Jul-16 04:33N 37°56' E 023°37'0 0.0
2016-Jul-16 03:32N 37°56' E 023°37'0 0.0
2016-Jul-16 02:32N 37°56' E 023°37'0 0.0
2016-Jul-16 01:31N 37°56' E 023°37'1 1.0
2016-Jul-16 00:33N 37°55' E 023°37'7 7.1
2016-Jul-15 23:33N 37°49' E 023°40'7 7.0
2016-Jul-15 22:34N 37°43' E 023°44'7 6.7
2016-Jul-15 21:33N 37°38' E 023°51'3 5.5
2016-Jul-15 21:00N 37°36' E 023°48'817.4 140 / 121003.0 26.3 28.7
2016-Jul-15 20:33N 37°35' E 023°58'6 5.9
2016-Jul-15 19:34N 37°32' E 024°04'6 5.9
2016-Jul-15 18:33N 37°31' E 024°11'6 6.2
2016-Jul-15 17:33N 37°30' E 024°19'15 7.0
2016-Jul-15 15:29N 37°32' E 024°37'6 6.6
2016-Jul-15 14:33N 37°33' E 024°44'8 6.2
2016-Jul-15 13:17N 37°34' E 024°54'4 5.9
2016-Jul-15 12:33N 37°32' E 024°59'2 3.3
2016-Jul-15 12:00N 37°30' E 025°00'512.1 310 / 41005.0 5.4 0.529.0 27.5
2016-Jul-15 11:34N 37°30' E 025°07'6 5.9
2016-Jul-15 10:33N 37°31' E 025°14'7 6.2
2016-Jul-15 09:28N 37°34' E 025°21'5 5.8
2016-Jul-15 08:33N 37°37' E 025°27'6 6.5
2016-Jul-15 07:34N 37°40' E 025°34'7 6.6
2016-Jul-15 06:33N 37°44' E 025°41'40 6.1
2016-Jul-15 00:00N 37°54' E 026°30'14 4.7 1004.010.8 23.0 26.1
2016-Jul-14 21:00N 37°54' E 026°48'11 3.7 240 / 171003.0 2.2 0.523.5 26.6
2016-Jul-14 18:00N 37°48' E 027°00'9 1.6 360 / 51004.0 2.2 24.7 26.4
2016-Jul-14 12:00N 37°48' E 027°12'0 0.0 280 / 51005.0 5.4 1.027.0 26.3
2016-Jul-14 09:00N 37°48' E 027°12'0 0.0 270 / 61005.0 2.2 23.2 25.9
2016-Jul-14 06:00N 37°48' E 027°12'34 5.6 280 / 31005.0 2.2 23.4 25.6
2016-Jul-14 00:00N 37°54' E 026°30'4013.3 260 / 101006.0 5.4 1.021.0 25.2
2016-Jul-13 21:00N 37°42' E 025°42'511.5 320 / 191006.0 5.4 1.023.0 25.9
2016-Jul-13 20:33N 37°40' E 025°36'1715.6
2016-Jul-13 19:28N 37°31' E 025°18'3 2.9
2016-Jul-13 18:33N 37°28' E 025°19'0 0.0
2016-Jul-13 17:33N 37°28' E 025°19'  

Dump ship's entire track history